Time;durP1;ratioP1;P1;durP2;ratioP2;P2;SDS_P1;SDS_P2;PMS_P1;PMS_P2;Temp;Humidity;BMP_temperature;BMP_pressure;BME280_temperature;BME280_humidity;BME280_pressure;Samples;Min_cycle;Max_cycle;Signal;HPM_P1;HPM_P2
2021/11/20 00:01:13;;;;;;;50.50;23.52;;;;;;;7.70;100.00;97643.53;4997064;28;20065;-57
2021/11/20 00:03:44;;;;;;;48.00;23.38;;;;;;;7.55;100.00;97645.38;4996412;28;20066;-61
2021/11/20 00:06:17;;;;;;;47.17;23.15;;;;;;;7.68;100.00;97655.09;4989945;28;20070;-61
2021/11/20 00:08:46;;;;;;;54.78;24.00;;;;;;;7.82;100.00;97649.81;4985399;28;20089;-58
2021/11/20 00:11:17;;;;;;;59.97;23.77;;;;;;;7.61;100.00;97650.22;4988987;28;20209;-59
2021/11/20 00:13:46;;;;;;;47.90;22.92;;;;;;;7.69;100.00;97655.00;4980304;28;20520;-60
2021/11/20 00:16:14;;;;;;;52.72;23.25;;;;;;;7.75;100.00;97644.09;4999811;28;20077;-58
2021/11/20 00:18:44;;;;;;;41.22;21.50;;;;;;;7.62;100.00;97637.94;4982910;28;20069;-59
2021/11/20 00:21:17;;;;;;;43.80;22.55;;;;;;;7.52;100.00;97652.59;4985943;28;20495;-56
2021/11/20 00:23:48;;;;;;;42.13;22.33;;;;;;;7.36;100.00;97658.81;4993402;28;20065;-59
2021/11/20 00:26:20;;;;;;;47.67;22.40;;;;;;;7.50;100.00;97639.56;4996686;28;20074;-58
2021/11/20 00:31:39;;;;;;;49.22;22.67;;;;;;;7.44;100.00;97644.38;4972198;28;20405;-61
2021/11/20 00:34:10;;;;;;;53.17;23.52;;;;;;;7.16;100.00;97640.81;4994153;28;20070;-61
2021/11/20 00:36:40;;;;;;;49.03;22.33;;;;;;;7.23;100.00;97634.25;4992204;28;20473;-57
2021/11/20 00:39:12;;;;;;;44.83;22.02;;;;;;;7.41;100.00;97636.69;4995254;28;20605;-58
2021/11/20 00:41:41;;;;;;;50.55;23.20;;;;;;;7.54;100.00;97640.22;4996774;28;20069;-57
2021/11/20 00:44:10;;;;;;;43.30;21.90;;;;;;;7.91;100.00;97640.47;4994090;28;20457;-57
2021/11/20 00:46:38;;;;;;;43.38;22.02;;;;;;;7.72;100.00;97632.97;4994774;28;20078;-61
2021/11/20 00:49:08;;;;;;;36.85;20.15;;;;;;;7.28;100.00;97645.31;4991236;28;20066;-57
2021/11/20 00:51:37;;;;;;;47.20;22.57;;;;;;;7.63;100.00;97634.38;4992985;28;20080;-61
2021/11/20 00:54:07;;;;;;;44.17;21.73;;;;;;;7.32;100.00;97649.41;4989882;28;20505;-58
2021/11/20 00:56:36;;;;;;;43.97;21.80;;;;;;;7.58;100.00;97639.09;4991161;28;20084;-58
2021/11/20 00:59:06;;;;;;;48.33;22.85;;;;;;;7.50;100.00;97636.94;4996827;28;20112;-60
2021/11/20 01:01:43;;;;;;;48.30;22.65;;;;;;;7.67;100.00;97635.00;4998214;28;20081;-58
2021/11/20 01:04:12;;;;;;;44.42;22.27;;;;;;;7.44;100.00;97639.94;4997992;28;20054;-59
2021/11/20 01:06:42;;;;;;;40.78;20.08;;;;;;;7.45;100.00;97646.03;4991969;28;20135;-60
2021/11/20 01:09:14;;;;;;;43.10;21.63;;;;;;;7.52;100.00;97642.09;4989657;28;20058;-60
2021/11/20 01:11:45;;;;;;;40.08;20.80;;;;;;;7.30;100.00;97648.69;4989644;28;20500;-60
2021/11/20 01:14:15;;;;;;;41.15;21.23;;;;;;;7.46;100.00;97632.81;4993486;28;20089;-60
2021/11/20 01:16:45;;;;;;;42.67;20.95;;;;;;;7.36;100.00;97631.69;4998379;28;20532;-61
2021/11/20 01:19:14;;;;;;;;;;;;;;;7.40;100.00;97634.97;4996806;28;20074;-57
2021/11/20 01:21:43;;;;;;;38.10;20.27;;;;;;;7.09;100.00;97619.38;4987470;28;19961;-60
2021/11/20 01:24:13;;;;;;;41.65;21.42;;;;;;;7.23;100.00;97625.56;4992063;28;20058;-60
2021/11/20 01:26:42;;;;;;;42.03;20.77;;;;;;;7.06;100.00;97619.56;4989402;28;20069;-60
2021/11/20 01:29:12;;;;;;;40.47;20.80;;;;;;;7.03;100.00;97622.38;4992057;28;20082;-59
2021/11/20 01:31:43;;;;;;;40.03;20.35;;;;;;;7.09;100.00;97613.28;5003624;28;20488;-62
2021/11/20 01:34:12;;;;;;;39.85;20.42;;;;;;;7.12;100.00;97607.81;4992602;28;20088;-57
2021/11/20 01:36:41;;;;;;;45.45;21.35;;;;;;;7.06;100.00;97602.97;4998746;28;20577;-57
2021/11/20 01:39:14;;;;;;;44.90;21.95;;;;;;;7.01;100.00;97600.63;4991917;28;20061;-59
2021/11/20 01:41:45;;;;;;;43.17;20.83;;;;;;;7.10;100.00;97601.84;4992497;28;20061;-58
2021/11/20 01:44:16;;;;;;;40.72;20.05;;;;;;;7.24;100.00;97596.59;4993018;28;20088;-55
2021/11/20 01:46:49;;;;;;;43.10;21.80;;;;;;;7.17;100.00;97594.44;5000083;28;20085;-59
2021/11/20 01:49:19;;;;;;;41.40;19.65;;;;;;;6.91;100.00;97596.88;4992102;28;20081;-56
2021/11/20 01:51:48;;;;;;;;;;;;;;;7.04;100.00;97589.09;5001533;28;20076;-58
2021/11/20 01:54:27;;;;;;;39.50;20.02;;;;;;;6.98;100.00;97590.31;4991514;28;19969;-57
2021/11/20 01:57:03;;;;;;;36.75;19.33;;;;;;;6.72;100.00;97591.09;4989810;28;20081;-57
2021/11/20 01:59:34;;;;;;;37.97;19.13;;;;;;;6.88;100.00;97584.81;4997622;28;20064;-59
2021/11/20 02:02:22;;;;;;;41.75;20.55;;;;;;;6.99;100.00;97588.56;4994824;28;20664;-58
2021/11/20 02:04:57;;;;;;;44.08;21.02;;;;;;;6.90;100.00;97584.72;4995413;28;20532;-56
2021/11/20 02:07:29;;;;;;;39.15;20.13;;;;;;;6.92;100.00;97580.22;4990587;28;21362;-55
2021/11/20 02:10:04;;;;;;;41.08;19.80;;;;;;;6.97;100.00;97575.53;4994331;28;20070;-58
2021/11/20 02:12:35;;;;;;;42.35;20.95;;;;;;;7.21;100.00;97573.16;4995227;28;20065;-59
2021/11/20 02:15:06;;;;;;;38.55;19.30;;;;;;;7.17;100.00;97566.44;4999450;28;20066;-55
2021/11/20 02:17:38;;;;;;;37.42;19.40;;;;;;;6.82;100.00;97566.84;4996596;28;20057;-58
2021/11/20 02:20:11;;;;;;;41.25;20.00;;;;;;;7.10;100.00;97555.47;4997090;28;20078;-56
2021/11/20 02:22:39;;;;;;;38.25;18.77;;;;;;;6.69;100.00;97560.66;4996337;28;20105;-58
2021/11/20 02:25:10;;;;;;;40.92;19.92;;;;;;;7.07;100.00;97558.28;4994686;28;20077;-57
2021/11/20 02:27:43;;;;;;;37.75;19.27;;;;;;;7.05;100.00;97559.31;4996933;28;20069;-59
2021/11/20 02:30:18;;;;;;;36.22;17.63;;;;;;;7.16;100.00;97550.75;4996799;28;20076;-60
2021/11/20 02:32:50;;;;;;;35.78;18.35;;;;;;;7.03;100.00;97542.84;4996184;28;20578;-58
2021/11/20 02:35:25;;;;;;;36.85;18.08;;;;;;;7.20;100.00;97536.53;4987232;28;20073;-57
2021/11/20 02:37:53;;;;;;;35.38;18.42;;;;;;;7.22;100.00;97537.28;4997592;28;20120;-58
2021/11/20 02:40:22;;;;;;;34.85;17.80;;;;;;;6.90;100.00;97538.34;4995489;28;20355;-55
2021/11/20 02:42:51;;;;;;;35.22;17.92;;;;;;;7.22;100.00;97534.66;4997009;28;20061;-53
2021/11/20 02:45:24;;;;;;;33.60;17.33;;;;;;;7.03;100.00;97525.31;4990590;28;20070;-55
2021/11/20 02:47:54;;;;;;;35.53;17.73;;;;;;;6.96;100.00;97523.19;4993504;28;20074;-58
2021/11/20 02:50:31;;;;;;;38.60;18.73;;;;;;;7.10;100.00;97518.75;4992107;28;20722;-57
2021/11/20 02:53:00;;;;;;;34.05;16.83;;;;;;;7.06;100.00;97519.06;4991837;28;20089;-58
2021/11/20 02:55:28;;;;;;;33.90;17.10;;;;;;;6.76;100.00;97516.56;4995696;28;20066;-55
2021/11/20 02:57:57;;;;;;;37.92;18.33;;;;;;;7.07;100.00;97521.56;4991551;28;20069;-52
2021/11/20 03:00:27;;;;;;;38.35;18.05;;;;;;;7.25;100.00;97524.78;4991676;28;20072;-56
2021/11/20 03:02:55;;;;;;;38.72;18.60;;;;;;;7.12;100.00;97524.75;4990319;28;20170;-58
2021/11/20 03:05:24;;;;;;;38.70;17.48;;;;;;;6.96;100.00;97524.03;4998873;28;20604;-56
2021/11/20 03:07:53;;;;;;;37.70;18.33;;;;;;;7.21;100.00;97523.31;4993884;28;20104;-58
2021/11/20 03:10:21;;;;;;;36.95;18.02;;;;;;;7.21;100.00;97522.47;4971831;28;20067;-57
2021/11/20 03:12:50;;;;;;;37.05;18.45;;;;;;;7.30;100.00;97520.13;4986489;28;20100;-56
2021/11/20 03:15:19;;;;;;;43.45;19.15;;;;;;;7.24;100.00;97517.03;4979400;28;20042;-54
2021/11/20 03:17:49;;;;;;;36.20;17.63;;;;;;;7.20;100.00;97523.44;4987106;28;20054;-55
2021/11/20 03:20:19;;;;;;;39.42;18.23;;;;;;;7.04;100.00;97520.91;4988765;28;20073;-59
2021/11/20 03:23:00;;;;;;;37.83;17.85;;;;;;;7.38;100.00;97507.34;4985569;28;20080;-54
2021/11/20 03:25:29;;;;;;;38.42;18.55;;;;;;;7.59;100.00;97512.97;4973247;28;20488;-60
2021/11/20 03:27:58;;;;;;;39.25;18.67;;;;;;;7.59;100.00;97499.84;4999627;28;20058;-56
2021/11/20 03:30:26;;;;;;;38.70;18.27;;;;;;;7.30;100.00;97503.53;4997648;28;20515;-58
2021/11/20 03:32:57;;;;;;;34.83;17.77;;;;;;;7.48;100.00;97498.88;4991229;28;20038;-61
2021/11/20 03:35:26;;;;;;;32.30;15.82;;;;;;;7.63;100.00;97502.28;4976533;28;20073;-58
2021/11/20 03:37:55;;;;;;;36.90;17.30;;;;;;;7.54;100.00;97509.81;4994646;28;20552;-54
2021/11/20 03:40:23;;;;;;;34.70;17.00;;;;;;;7.57;100.00;97506.13;4996249;28;20290;-55
2021/11/20 03:42:52;;;;;;;36.72;17.63;;;;;;;7.60;100.00;97498.94;4998790;28;20061;-55
2021/11/20 03:45:23;;;;;;;31.15;15.95;;;;;;;7.86;100.00;97504.22;4990849;28;20062;-55
2021/11/20 03:47:51;;;;;;;;;;;;;;;7.61;100.00;97494.50;5000274;28;20065;-56
2021/11/20 03:50:21;;;;;;;31.55;14.95;;;;;;;8.01;100.00;97495.31;4999136;28;19961;-57
2021/11/20 03:52:50;;;;;;;33.28;15.88;;;;;;;7.54;100.00;97496.69;4992913;28;20120;-57
2021/11/20 03:55:20;;;;;;;32.72;15.68;;;;;;;7.67;100.00;97486.19;4993289;28;20078;-58
2021/11/20 03:57:49;;;;;;;;;;;;;;;7.26;100.00;97481.03;4992851;28;20109;-59
2021/11/20 04:00:19;;;;;;;28.52;13.65;;;;;;;7.42;100.00;97488.78;4995181;28;20360;-58
2021/11/20 04:02:49;;;;;;;28.83;14.57;;;;;;;7.52;100.00;97488.06;4993875;28;20069;-54
2021/11/20 04:05:19;;;;;;;30.38;16.58;;;;;;;7.76;100.00;97492.66;4995173;28;20073;-57
2021/11/20 04:07:49;;;;;;;31.95;16.30;;;;;;;7.67;100.00;97482.75;5001427;28;20094;-54
2021/11/20 04:10:19;;;;;;;33.38;16.67;;;;;;;7.51;100.00;97490.81;4992924;28;20544;-55
2021/11/20 04:12:48;;;;;;;35.30;16.65;;;;;;;7.56;100.00;97486.91;4997813;28;20073;-55
2021/11/20 04:15:19;;;;;;;31.48;14.82;;;;;;;7.54;100.00;97477.47;4993124;28;20070;-58
2021/11/20 04:17:48;;;;;;;32.75;15.55;;;;;;;7.58;100.00;97481.59;4994984;28;20073;-58
2021/11/20 04:20:18;;;;;;;32.80;15.93;;;;;;;7.48;100.00;97483.13;4994904;28;20445;-57
2021/11/20 04:22:48;;;;;;;32.83;17.05;;;;;;;7.66;100.00;97478.44;4998170;28;20176;-60
2021/11/20 04:25:19;;;;;;;37.38;16.63;;;;;;;7.73;100.00;97477.94;4998466;28;20073;-55
2021/11/20 04:27:47;;;;;;;29.73;14.55;;;;;;;7.67;100.00;97474.88;4991268;28;20453;-57
2021/11/20 04:30:17;;;;;;;34.47;16.95;;;;;;;7.47;100.00;97469.16;4993404;28;20096;-58
2021/11/20 04:32:46;;;;;;;34.15;16.05;;;;;;;7.70;100.00;97472.88;4990593;28;20073;-57
2021/11/20 04:35:15;;;;;;;31.00;15.57;;;;;;;7.53;100.00;97470.53;4995245;28;20140;-58
2021/11/20 04:37:44;;;;;;;35.90;16.00;;;;;;;7.50;100.00;97471.59;4995250;28;20105;-57
2021/11/20 04:40:14;;;;;;;36.55;15.77;;;;;;;7.48;100.00;97470.00;4994460;28;20058;-58
2021/11/20 04:42:43;;;;;;;33.95;15.77;;;;;;;7.75;100.00;97473.44;4997014;28;20066;-59
2021/11/20 04:45:13;;;;;;;35.97;15.82;;;;;;;7.66;100.00;97471.41;4990941;28;20069;-60
2021/11/20 04:47:42;;;;;;;36.17;16.58;;;;;;;7.68;100.00;97466.91;4991323;28;20050;-57
2021/11/20 04:50:11;;;;;;;30.95;15.63;;;;;;;7.81;100.00;97467.78;4976493;28;20093;-58
2021/11/20 04:52:41;;;;;;;33.35;16.58;;;;;;;7.87;100.00;97468.28;5000562;28;20084;-54
2021/11/20 04:55:11;;;;;;;32.38;15.63;;;;;;;7.73;100.00;97477.94;4990910;28;20696;-57
2021/11/20 04:57:41;;;;;;;30.45;15.55;;;;;;;7.95;100.00;97466.84;4995161;28;20321;-59
2021/11/20 05:00:13;;;;;;;29.58;16.27;;;;;;;8.28;100.00;97461.06;4995792;28;20065;-58
2021/11/20 05:02:42;;;;;;;32.08;14.98;;;;;;;8.28;100.00;97454.97;4992685;28;20088;-59
2021/11/20 05:05:11;;;;;;;28.90;14.52;;;;;;;8.20;100.00;97458.13;4993055;28;20521;-61
2021/11/20 05:07:40;;;;;;;30.70;14.43;;;;;;;8.22;100.00;97450.13;5000660;28;20456;-56
2021/11/20 05:10:11;;;;;;;29.08;14.57;;;;;;;8.66;100.00;97447.06;4996366;28;20077;-61
2021/11/20 05:12:41;;;;;;;28.25;14.85;;;;;;;8.40;100.00;97451.53;4990051;28;20066;-58
2021/11/20 05:15:11;;;;;;;28.23;14.93;;;;;;;8.23;100.00;97447.41;4998366;28;20058;-57
2021/11/20 05:17:40;;;;;;;28.52;14.82;;;;;;;8.30;100.00;97453.94;4992535;28;20061;-58
2021/11/20 05:20:13;;;;;;;30.48;15.20;;;;;;;8.31;100.00;97457.38;4989155;28;20084;-53
2021/11/20 05:22:42;;;;;;;30.35;14.75;;;;;;;7.85;100.00;97450.88;4994903;28;20093;-59
2021/11/20 05:25:12;;;;;;;30.45;15.23;;;;;;;8.36;100.00;97446.56;4989490;28;20677;-59
2021/11/20 05:27:42;;;;;;;24.85;13.70;;;;;;;8.49;100.00;97444.78;4990024;28;20066;-59
2021/11/20 05:30:16;;;;;;;30.60;14.32;;;;;;;8.54;100.00;97440.91;4996043;28;20541;-64
2021/11/20 05:32:45;;;;;;;29.42;14.10;;;;;;;8.68;100.00;97439.09;4995632;28;20038;-60
2021/11/20 05:35:15;;;;;;;29.15;14.57;;;;;;;8.16;100.00;97440.91;4998629;28;20091;-58
2021/11/20 05:37:43;;;;;;;28.33;13.88;;;;;;;8.32;100.00;97432.78;4995804;28;20517;-55
2021/11/20 05:40:14;;;;;;;31.05;15.35;;;;;;;8.60;100.00;97430.88;4993462;28;20536;-57
2021/11/20 05:42:47;;;;;;;25.27;12.70;;;;;;;8.22;100.00;97435.19;4988578;28;20042;-58
2021/11/20 05:45:15;;;;;;;23.35;12.90;;;;;;;8.52;100.00;97427.00;4995911;28;20077;-55
2021/11/20 05:47:44;;;;;;;21.20;12.52;;;;;;;8.25;100.00;97429.72;4990024;28;20496;-54
2021/11/20 05:50:13;;;;;;;26.10;12.68;;;;;;;8.34;100.00;97433.53;4991175;28;20073;-60
2021/11/20 05:52:41;;;;;;;24.17;12.77;;;;;;;8.35;100.00;97421.22;5000529;28;20571;-54
2021/11/20 05:55:10;;;;;;;25.30;12.70;;;;;;;8.29;100.00;97425.97;4993632;28;20069;-55
2021/11/20 05:57:38;;;;;;;26.00;12.77;;;;;;;8.24;100.00;97421.97;4994034;28;20061;-56
2021/11/20 06:00:11;;;;;;;22.48;11.85;;;;;;;7.95;100.00;97424.81;4996025;28;20070;-59
2021/11/20 06:02:40;;;;;;;23.15;12.02;;;;;;;7.76;100.00;97419.97;4994851;28;20200;-57
2021/11/20 06:05:09;;;;;;;26.40;12.85;;;;;;;7.89;100.00;97424.41;4987239;28;20551;-54
2021/11/20 06:07:38;;;;;;;22.20;12.52;;;;;;;7.56;100.00;97429.16;4996449;28;20089;-58
2021/11/20 06:10:07;;;;;;;22.58;12.68;;;;;;;7.83;100.00;97431.72;4990737;28;20066;-56
2021/11/20 06:12:35;;;;;;;25.23;12.80;;;;;;;7.66;100.00;97432.03;4990327;28;20073;-58
2021/11/20 06:15:04;;;;;;;23.10;12.25;;;;;;;7.90;100.00;97432.16;4995036;28;20065;-55
2021/11/20 06:17:34;;;;;;;26.08;13.85;;;;;;;7.88;100.00;97438.47;4994074;28;20198;-56
2021/11/20 06:20:04;;;;;;;23.63;13.00;;;;;;;8.21;100.00;97432.69;4994516;28;20092;-58
2021/11/20 06:22:32;;;;;;;21.50;11.10;;;;;;;8.06;100.00;97437.22;4991694;28;20496;-59
2021/11/20 06:25:00;;;;;;;26.08;12.57;;;;;;;8.29;100.00;97423.34;4990949;28;20131;-57
2021/11/20 06:27:29;;;;;;;24.55;12.45;;;;;;;7.90;100.00;97434.78;4995718;28;20034;-56
2021/11/20 06:29:57;;;;;;;25.42;13.13;;;;;;;7.71;100.00;97435.19;4988397;28;20077;-52
2021/11/20 06:32:26;;;;;;;26.27;13.38;;;;;;;7.93;100.00;97428.50;4994937;28;20042;-59
2021/11/20 06:34:56;;;;;;;24.13;13.65;;;;;;;8.37;100.00;97427.22;4994466;28;20570;-54
2021/11/20 06:37:24;;;;;;;22.00;12.55;;;;;;;8.28;100.00;97424.28;4989717;28;21365;-52
2021/11/20 06:39:53;;;;;;;22.58;12.48;;;;;;;8.14;100.00;97427.03;4990669;28;20077;-54
2021/11/20 06:42:21;;;;;;;22.75;12.55;;;;;;;8.40;100.00;97430.50;4992639;28;20069;-53
2021/11/20 06:44:50;;;;;;;28.25;12.90;;;;;;;8.30;100.00;97427.66;4991572;28;20061;-55
2021/11/20 06:47:18;;;;;;;26.10;13.82;;;;;;;8.53;100.00;97423.44;4990756;28;20547;-56
2021/11/20 06:49:46;;;;;;;22.85;12.55;;;;;;;8.55;100.00;97420.69;5001392;28;20657;-58
2021/11/20 06:52:16;;;;;;;23.95;12.75;;;;;;;8.38;100.00;97423.69;4990407;28;20084;-57
2021/11/20 06:54:44;;;;;;;22.83;12.43;;;;;;;8.60;100.00;97420.38;4993037;28;20077;-58
2021/11/20 06:57:14;;;;;;;23.02;12.70;;;;;;;8.53;100.00;97419.94;5000164;28;20500;-56
2021/11/20 07:02:33;;;;;;;24.17;12.70;;;;;;;8.54;100.00;97430.38;4998827;28;20479;-58
2021/11/20 07:05:04;;;;;;;22.30;12.27;;;;;;;8.74;100.00;97428.09;4999623;28;20089;-54
2021/11/20 07:07:34;;;;;;;22.77;12.40;;;;;;;8.97;100.00;97431.72;4995718;28;20078;-56
2021/11/20 07:10:04;;;;;;;;;;;;;;;8.90;100.00;97419.97;4996972;28;20077;-61
2021/11/20 07:12:32;;;;;;;24.17;12.50;;;;;;;9.11;100.00;97431.56;4996051;28;19964;-51
2021/11/20 07:15:01;;;;;;;30.58;14.18;;;;;;;8.66;100.00;97431.28;5001289;28;20136;-60
2021/11/20 07:17:30;;;;;;;30.98;14.93;;;;;;;8.67;100.00;97437.38;4992551;28;20082;-58
2021/11/20 07:19:59;;;;;;;28.83;14.55;;;;;;;8.67;100.00;97437.38;4994927;28;20070;-60
2021/11/20 07:22:27;;;;;;;28.75;14.27;;;;;;;8.76;100.00;97434.09;5002495;28;20084;-59
2021/11/20 07:24:57;;;;;;;26.50;14.27;;;;;;;8.46;100.00;97434.47;4993652;28;20074;-62
2021/11/20 07:27:25;;;;;;;30.33;14.47;;;;;;;9.38;100.00;97439.25;4995440;28;20069;-62
2021/11/20 07:29:54;;;;;;;28.88;14.20;;;;;;;9.41;100.00;97439.00;4994529;28;20492;-62
2021/11/20 07:32:26;;;;;;;26.25;13.70;;;;;;;9.70;100.00;97434.22;4999106;28;20057;-60
2021/11/20 07:34:55;;;;;;;23.92;13.63;;;;;;;9.60;100.00;97433.25;5000768;28;20139;-54
2021/11/20 07:37:24;;;;;;;25.10;13.20;;;;;;;9.29;100.00;97434.66;4996059;28;20158;-58
2021/11/20 07:39:52;;;;;;;25.92;13.85;;;;;;;9.58;100.00;97435.13;4998783;28;20080;-60
2021/11/20 07:42:22;;;;;;;24.08;13.38;;;;;;;9.35;100.00;97431.56;4994085;28;20536;-61
2021/11/20 07:44:50;;;;;;;24.38;13.32;;;;;;;9.75;100.00;97428.59;4997940;28;20160;-59
2021/11/20 07:47:19;;;;;;;26.38;14.23;;;;;;;9.69;100.00;97422.00;4997564;28;20066;-60
2021/11/20 07:49:49;;;;;;;25.00;14.45;;;;;;;9.14;100.00;97415.56;4996330;28;20097;-60
2021/11/20 07:52:18;;;;;;;22.80;12.60;;;;;;;9.40;100.00;97418.91;4999274;28;20070;-56
2021/11/20 07:54:46;;;;;;;24.80;13.35;;;;;;;9.83;100.00;97422.75;4993570;28;20074;-55
2021/11/20 07:57:14;;;;;;;27.52;14.13;;;;;;;9.34;100.00;97418.53;4996370;28;20088;-56
2021/11/20 07:59:44;;;;;;;43.45;21.10;;;;;;;9.60;100.00;97406.91;5002447;28;20070;-61
2021/11/20 08:02:13;;;;;;;29.87;15.07;;;;;;;9.57;100.00;97408.94;4988303;28;20086;-58
2021/11/20 08:04:42;;;;;;;30.63;15.70;;;;;;;9.74;100.00;97405.88;4994314;28;20504;-59
2021/11/20 08:07:11;;;;;;;29.15;14.73;;;;;;;9.94;100.00;97402.56;4997112;28;20838;-61
2021/11/20 08:09:39;;;;;;;28.27;14.68;;;;;;;9.58;100.00;97402.69;4988557;28;20473;-59
2021/11/20 08:12:08;;;;;;;31.27;16.77;;;;;;;9.87;100.00;97397.84;4988379;28;20054;-58
2021/11/20 08:14:36;;;;;;;29.20;15.85;;;;;;;9.78;100.00;97395.94;4994844;28;20061;-61
2021/11/20 08:17:06;;;;;;;32.72;15.48;;;;;;;9.33;100.00;97393.16;4989627;28;20089;-58
2021/11/20 08:19:35;;;;;;;23.75;13.80;;;;;;;9.57;100.00;97393.97;4997449;28;20081;-60
2021/11/20 08:22:04;;;;;;;25.85;12.60;;;;;;;9.81;100.00;97387.81;4991572;28;20548;-58
2021/11/20 08:24:32;;;;;;;23.30;12.65;;;;;;;10.12;100.00;97378.38;4990970;28;20061;-59
2021/11/20 08:27:01;;;;;;;23.10;11.65;;;;;;;10.44;100.00;97374.06;4992372;28;20529;-60
2021/11/20 08:29:32;;;;;;;20.02;11.80;;;;;;;9.81;100.00;97379.91;4996260;28;20070;-59
2021/11/20 08:32:00;;;;;;;20.15;11.32;;;;;;;9.95;100.00;97379.69;4994954;28;20081;-60
2021/11/20 08:34:30;;;;;;;20.63;11.85;;;;;;;10.32;100.00;97367.13;4997345;28;20078;-59
2021/11/20 08:37:00;;;;;;;17.63;10.63;;;;;;;10.67;100.00;97355.59;4987985;28;20035;-59
2021/11/20 08:39:30;;;;;;;19.27;11.70;;;;;;;10.63;100.00;97359.41;4993123;28;20070;-61
2021/11/20 08:41:58;;;;;;;20.83;11.48;;;;;;;10.76;100.00;97357.47;4987719;28;20077;-58
2021/11/20 08:44:27;;;;;;;20.80;11.13;;;;;;;10.59;100.00;97352.72;4994398;28;20061;-56
2021/11/20 08:46:55;;;;;;;18.70;10.55;;;;;;;10.01;100.00;97352.81;4988736;28;20066;-59
2021/11/20 08:49:25;;;;;;;16.95;11.00;;;;;;;10.16;100.00;97356.09;4995889;28;20249;-59
2021/11/20 08:51:56;;;;;;;21.80;11.32;;;;;;;10.48;100.00;97350.94;5002977;28;20583;-59
2021/11/20 08:54:25;;;;;;;16.80;10.45;;;;;;;10.42;100.00;97354.88;4999393;28;20203;-60
2021/11/20 08:56:54;;;;;;;23.48;11.18;;;;;;;10.68;100.00;97349.34;4988827;28;20054;-61
2021/11/20 08:59:25;;;;;;;17.50;10.75;;;;;;;10.71;100.00;97335.06;4986177;28;20068;-61
2021/11/20 09:01:56;;;;;;;15.93;10.30;;;;;;;10.89;100.00;97344.13;4996144;28;20085;-60
2021/11/20 09:04:31;;;;;;;16.92;10.98;;;;;;;11.14;100.00;97345.59;4995493;28;20203;-58
2021/11/20 09:07:08;;;;;;;15.68;10.20;;;;;;;11.14;100.00;97345.59;4991403;28;20057;-62
2021/11/20 09:09:39;;;;;;;16.10;10.10;;;;;;;11.05;100.00;97341.09;4987294;28;20497;-60
2021/11/20 09:12:11;;;;;;;14.32;9.65;;;;;;;11.44;100.00;97334.28;4989667;28;20062;-59
2021/11/20 09:14:44;;;;;;;14.45;9.50;;;;;;;10.66;100.00;97336.25;4991511;28;20053;-61
2021/11/20 09:17:14;;;;;;;20.30;9.85;;;;;;;10.99;100.00;97339.78;4997575;28;20062;-59
2021/11/20 09:19:44;;;;;;;15.70;9.17;;;;;;;10.74;100.00;97333.03;4992005;28;20438;-60
2021/11/20 09:22:15;;;;;;;15.82;10.55;;;;;;;10.75;100.00;97333.84;4987226;28;21282;-61
2021/11/20 09:24:45;;;;;;;17.02;10.40;;;;;;;11.12;100.00;97327.25;4988117;28;20076;-57
2021/11/20 09:27:34;;;;;;;15.35;11.13;;;;;;;10.96;100.00;97326.00;4993789;28;20054;-59
2021/11/20 09:30:03;;;;;;;14.55;9.73;;;;;;;10.96;100.00;97323.34;4990467;28;20457;-59
2021/11/20 09:32:31;;;;;;;15.52;9.25;;;;;;;11.51;100.00;97324.88;4991885;28;20041;-59
2021/11/20 09:35:00;;;;;;;16.58;9.45;;;;;;;11.63;100.00;97318.59;4990514;28;20631;-57
2021/11/20 09:37:30;;;;;;;13.95;9.32;;;;;;;11.93;100.00;97313.47;4991523;28;20078;-57
2021/11/20 09:39:58;;;;;;;14.63;9.65;;;;;;;11.87;100.00;97320.09;5003497;28;20038;-58
2021/11/20 09:42:33;;;;;;;13.90;8.85;;;;;;;11.45;100.00;97316.63;5001106;28;20076;-61
2021/11/20 09:45:06;;;;;;;11.63;8.40;;;;;;;11.48;100.00;97311.94;4993759;28;20058;-59
2021/11/20 09:47:37;;;;;;;13.15;9.45;;;;;;;11.43;100.00;97316.78;4987300;28;20062;-60
2021/11/20 09:50:10;;;;;;;12.45;7.90;;;;;;;11.68;100.00;97312.91;4989048;28;20092;-60
2021/11/20 09:52:41;;;;;;;12.02;7.82;;;;;;;11.78;100.00;97311.16;5008080;28;20083;-60
2021/11/20 09:55:12;;;;;;;10.60;7.68;;;;;;;11.07;100.00;97313.56;4993956;28;20481;-56
2021/11/20 09:57:47;;;;;;;11.30;7.93;;;;;;;11.28;100.00;97308.31;4990081;28;20085;-56
2021/11/20 10:00:56;;;;;;;12.68;8.23;;;;;;;11.60;100.00;97307.44;4988967;28;20078;-58
2021/11/20 10:03:32;;;;;;;11.90;8.50;;;;;;;11.81;100.00;97300.31;4991897;28;20050;-56
2021/11/20 10:06:03;;;;;;;10.45;7.25;;;;;;;12.20;100.00;97289.09;4986097;28;20101;-59
2021/11/20 10:08:36;;;;;;;10.73;7.13;;;;;;;12.05;100.00;97285.97;4985820;28;20061;-62
2021/11/20 10:11:27;;;;;;;14.40;7.68;;;;;;;11.33;100.00;97294.75;4990500;28;20069;-59
2021/11/20 10:13:59;;;;;;;12.27;8.00;;;;;;;11.77;100.00;97282.22;4996337;28;20519;-57
2021/11/20 10:16:29;;;;;;;10.02;6.53;;;;;;;11.58;100.00;97285.59;4993248;28;20082;-61
2021/11/20 10:19:05;;;;;;;11.52;8.20;;;;;;;11.90;100.00;97279.38;4997113;28;20096;-58
2021/11/20 10:21:36;;;;;;;11.32;7.90;;;;;;;11.82;100.00;97278.19;4985697;28;20062;-59
2021/11/20 10:24:13;;;;;;;9.10;6.10;;;;;;;11.94;100.00;97273.72;4979778;28;20057;-55
2021/11/20 10:26:56;;;;;;;8.88;6.45;;;;;;;11.74;100.00;97270.09;4985576;28;20058;-59
2021/11/20 10:29:35;;;;;;;8.57;6.00;;;;;;;11.64;100.00;97271.84;4985887;28;20116;-59
2021/11/20 10:32:09;;;;;;;8.60;6.18;;;;;;;11.68;100.00;97256.56;4987060;28;20081;-57
2021/11/20 10:34:42;;;;;;;8.48;6.20;;;;;;;11.93;100.00;97255.31;4994641;28;20077;-57
2021/11/20 10:37:15;;;;;;;8.77;5.97;;;;;;;12.39;100.00;97248.63;5001282;28;20077;-55
2021/11/20 10:39:49;;;;;;;7.50;5.60;;;;;;;12.08;100.00;97248.72;4995751;28;20065;-58
2021/11/20 10:42:20;;;;;;;8.30;5.95;;;;;;;12.23;100.00;97241.22;4971998;28;20074;-59
2021/11/20 10:44:50;;;;;;;7.45;5.70;;;;;;;12.37;100.00;97234.72;4978575;28;20062;-54
2021/11/20 10:47:32;;;;;;;7.30;5.55;;;;;;;12.20;100.00;97233.56;4979961;28;20068;-57
2021/11/20 10:50:20;;;;;;;9.00;6.25;;;;;;;12.47;100.00;97224.97;5004861;28;20077;-60
2021/11/20 10:53:27;;;;;;;8.75;6.00;;;;;;;12.30;100.00;97223.84;4979433;28;20062;-57
2021/11/20 10:56:12;;;;;;;7.40;5.80;;;;;;;12.44;100.00;97220.78;4988417;28;20321;-59
2021/11/20 10:58:58;;;;;;;8.95;6.25;;;;;;;12.70;100.00;97213.16;4994327;28;20493;-56
2021/11/20 11:01:59;;;;;;;8.38;5.80;;;;;;;12.75;100.00;97210.91;4985622;28;20077;-53
2021/11/20 11:04:48;;;;;;;7.45;5.78;;;;;;;12.65;100.00;97204.78;4946087;28;20148;-58
2021/11/20 11:07:20;;;;;;;8.40;5.80;;;;;;;12.63;100.00;97200.59;4985070;28;20088;-56
2021/11/20 11:09:50;;;;;;;7.18;5.47;;;;;;;12.73;100.00;97197.00;4987795;28;20464;-58
2021/11/20 11:12:22;;;;;;;;;;;;;;;12.89;100.00;97198.25;5000774;28;20061;-54
2021/11/20 11:15:22;;;;;;;7.45;5.38;;;;;;;12.11;100.00;97196.41;4996194;28;20048;-58
2021/11/20 11:18:13;;;;;;;7.90;6.35;;;;;;;11.71;100.00;97187.63;4987560;28;20066;-58
2021/11/20 11:21:04;;;;;;;7.57;5.78;;;;;;;12.38;100.00;97179.00;4986638;28;20076;-58
2021/11/20 11:23:43;;;;;;;7.80;5.10;;;;;;;11.90;100.00;97178.94;4995569;28;20614;-58
2021/11/20 11:26:13;;;;;;;6.47;5.18;;;;;;;11.83;100.00;97173.31;4988008;28;20089;-61
2021/11/20 11:28:47;;;;;;;6.50;5.50;;;;;;;12.72;100.00;97173.31;4996693;28;20081;-57
2021/11/20 11:31:29;;;;;;;7.00;5.00;;;;;;;12.36;100.00;97162.47;4988235;28;20077;-59
2021/11/20 11:34:01;;;;;;;7.60;5.38;;;;;;;12.74;100.00;97174.03;4993416;28;20065;-59
2021/11/20 11:36:35;;;;;;;7.13;5.75;;;;;;;12.23;100.00;97164.53;4992032;28;20086;-55
2021/11/20 11:39:21;;;;;;;9.13;6.55;;;;;;;11.95;100.00;97159.06;4989309;28;20066;-60
2021/11/20 11:41:57;;;;;;;7.53;6.00;;;;;;;12.23;100.00;97157.44;4994823;28;20099;-57
2021/11/20 11:44:32;;;;;;;7.10;5.50;;;;;;;12.93;100.00;97152.81;5003405;28;20077;-59